Time;durP1;ratioP1;P1;durP2;ratioP2;P2;SDS_P1;SDS_P2;PMS_P1;PMS_P2;Temp;Humidity;BMP_temperature;BMP_pressure;BME280_temperature;BME280_humidity;BME280_pressure;Samples;Min_cycle;Max_cycle;Signal;HPM_P1;HPM_P2
2024/01/10 00:00:11;;;;;;;;;;;;;;;;;;5117216;27;20018;-73
2024/01/10 00:02:38;;;;;;;;;;;;;;;;;;5098170;28;19930;-75
2024/01/10 00:05:04;;;;;;;;;;;;;;;;;;5098159;28;20387;-73
2024/01/10 00:07:30;;;;;;;;;;;;;;;;;;5116222;27;19928;-73
2024/01/10 00:09:59;;;;;;;;;;;;;;;;;;5097076;28;19932;-73
2024/01/10 00:12:26;;;;;;;;;;;;;;;;;;5097603;27;19988;-72
2024/01/10 00:14:52;;;;;;;;;;;;;;;;;;5124075;27;20006;-73
2024/01/10 00:17:18;;;;;;;;;;;;;;;;;;5102290;27;19930;-73
2024/01/10 00:19:45;;;;;;;;;;;;;;;;;;5105565;27;19934;-73
2024/01/10 00:22:11;;;;;;;;;;;;;;;;;;5103193;27;19924;-72
2024/01/10 00:24:38;;;;;;;;;;;;;;;;;;5114302;27;19923;-73
2024/01/10 00:27:05;;;;;;;;;;;;;;;;;;5099117;27;19928;-74
2024/01/10 00:29:32;;;;;;;;;;;;;;;;;;5101381;27;19923;-73
2024/01/10 00:31:59;;;;;;;;;;;;;;;;;;5083840;27;19928;-73
2024/01/10 00:34:26;;;;;;;;;;;;;;;;;;5115931;27;19930;-73
2024/01/10 00:36:53;;;;;;;;;;;;;;;;;;5119895;27;20010;-74
2024/01/10 00:39:19;;;;;;;;;;;;;;;;;;5116502;27;19954;-73
2024/01/10 00:41:46;;;;;;;;;;;;;;;;;;5104645;28;19934;-72
2024/01/10 00:44:12;;;;;;;;;;;;;;;;;;5099662;27;20026;-74
2024/01/10 00:46:39;;;;;;;;;;;;;;;;;;5102666;28;20026;-74
2024/01/10 00:49:05;;;;;;;;;;;;;;;;;;5118323;27;19924;-73
2024/01/10 00:51:32;;;;;;;;;;;;;;;;;;5099058;28;19931;-72
2024/01/10 00:53:58;;;;;;;;;;;;;;;;;;5118017;27;20069;-73
2024/01/10 00:56:25;;;;;;;;;;;;;;;;;;5119540;27;19931;-73
2024/01/10 00:58:55;;;;;;;;;;;;;;;;;;5101429;28;19931;-73
2024/01/10 01:01:22;;;;;;;;;;;;;;;;;;5118619;27;19927;-74
2024/01/10 01:03:48;;;;;;;;;;;;;;;;;;5118601;27;20292;-74
2024/01/10 01:06:15;;;;;;;;;;;;;;;;;;5099117;27;19963;-73
2024/01/10 01:08:41;;;;;;;;;;;;;;;;;;5118873;27;20277;-74
2024/01/10 01:11:07;;;;;;;;;;;;;;;;;;5101061;27;19923;-72
2024/01/10 01:13:34;;;;;;;;;;;;;;;;;;5118044;27;19970;-73
2024/01/10 01:16:01;;;;;;;;;;;;;;;;;;5116381;27;19978;-73
2024/01/10 01:18:27;;;;;;;;;;;;;;;;;;5098072;28;19971;-72
2024/01/10 01:20:54;;;;;;;;;;;;;;;;;;5097954;28;19927;-73
2024/01/10 01:23:20;;;;;;;;;;;;;;;;;;5117458;27;20022;-73
2024/01/10 01:25:57;;;;;;;;;;;;;;;;;;5116356;27;19963;-74
2024/01/10 01:28:24;;;;;;;;;;;;;;;;;;5098642;28;19938;-72
2024/01/10 01:30:50;;;;;;;;;;;;;;;;;;5118212;27;20026;-74
2024/01/10 01:33:17;;;;;;;;;;;;;;;;;;5116386;27;19974;-73
2024/01/10 01:35:43;;;;;;;;;;;;;;;;;;5116061;27;19973;-73
2024/01/10 01:38:10;;;;;;;;;;;;;;;;;;5116004;27;19967;-72
2024/01/10 01:40:36;;;;;;;;;;;;;;;;;;5116720;27;19952;-72
2024/01/10 01:43:03;;;;;;;;;;;;;;;;;;5115289;27;19924;-73
2024/01/10 01:45:29;;;;;;;;;;;;;;;;;;5096449;27;20382;-72
2024/01/10 01:47:55;;;;;;;;;;;;;;;;;;5115471;27;19938;-72
2024/01/10 01:50:22;;;;;;;;;;;;;;;;;;5113780;27;19962;-71
2024/01/10 01:52:49;;;;;;;;;;;;;;;;;;5113822;28;19972;-72
2024/01/10 01:55:15;;;;;;;;;;;;;;;;;;5113762;28;20023;-73
2024/01/10 01:57:41;;;;;;;;;;;;;;;;;;5112205;28;19931;-73
2024/01/10 02:00:08;;;;;;;;;;;;;;;;;;5114271;28;19924;-73
2024/01/10 02:02:35;;;;;;;;;;;;;;;;;;5093407;27;20014;-73
2024/01/10 02:05:01;;;;;;;;;;;;;;;;;;5121715;27;19923;-72
2024/01/10 02:07:28;;;;;;;;;;;;;;;;;;5115531;27;19924;-74
2024/01/10 02:09:54;;;;;;;;;;;;;;;;;;5101506;28;19946;-75
2024/01/10 02:12:21;;;;;;;;;;;;;;;;;;5096897;28;19959;-73
2024/01/10 02:14:47;;;;;;;;;;;;;;;;;;5119508;27;19924;-75
2024/01/10 02:17:13;;;;;;;;;;;;;;;;;;5117368;27;19932;-72
2024/01/10 02:19:40;;;;;;;;;;;;;;;;;;5100744;27;19952;-73
2024/01/10 02:22:06;;;;;;;;;;;;;;;;;;5097265;27;19928;-73
2024/01/10 02:24:33;;;;;;;;;;;;;;;;;;5118720;27;19988;-74
2024/01/10 02:26:59;;;;;;;;;;;;;;;;;;5098361;28;19946;-74
2024/01/10 02:29:26;;;;;;;;;;;;;;;;;;5098123;28;19927;-74
2024/01/10 02:31:52;;;;;;;;;;;;;;;;;;5119092;27;20312;-73
2024/01/10 02:34:19;;;;;;;;;;;;;;;;;;5095990;27;20036;-74
2024/01/10 02:36:46;;;;;;;;;;;;;;;;;;5100005;28;19924;-73
2024/01/10 02:39:12;;;;;;;;;;;;;;;;;;5095509;28;19923;-74
2024/01/10 02:41:38;;;;;;;;;;;;;;;;;;5118409;27;19924;-73
2024/01/10 02:44:05;;;;;;;;;;;;;;;;;;5115069;27;20022;-73
2024/01/10 02:46:31;;;;;;;;;;;;;;;;;;5119359;28;19968;-74
2024/01/10 02:48:58;;;;;;;;;;;;;;;;;;5096458;28;19962;-73
2024/01/10 02:51:24;;;;;;;;;;;;;;;;;;5100678;28;19969;-72
2024/01/10 02:53:50;;;;;;;;;;;;;;;;;;5115817;28;19963;-71
2024/01/10 02:56:17;;;;;;;;;;;;;;;;;;5117170;28;19944;-73
2024/01/10 02:58:43;;;;;;;;;;;;;;;;;;5098452;28;19924;-72
2024/01/10 03:01:10;;;;;;;;;;;;;;;;;;5081869;28;20380;-73
2024/01/10 03:03:36;;;;;;;;;;;;;;;;;;5115226;28;19989;-74
2024/01/10 03:06:03;;;;;;;;;;;;;;;;;;5116760;28;19924;-73
2024/01/10 03:08:29;;;;;;;;;;;;;;;;;;5097174;28;19935;-74
2024/01/10 03:10:56;;;;;;;;;;;;;;;;;;5115339;28;19993;-75
2024/01/10 03:13:22;;;;;;;;;;;;;;;;;;5115591;28;19924;-74
2024/01/10 03:15:49;;;;;;;;;;;;;;;;;;5095605;28;19931;-73
2024/01/10 03:18:15;;;;;;;;;;;;;;;;;;5119336;27;20014;-73
2024/01/10 03:20:42;;;;;;;;;;;;;;;;;;5099087;28;19959;-74
2024/01/10 03:23:08;;;;;;;;;;;;;;;;;;5118439;27;19930;-75
2024/01/10 03:25:34;;;;;;;;;;;;;;;;;;5117345;27;19928;-72
2024/01/10 03:28:01;;;;;;;;;;;;;;;;;;5100625;27;19924;-73
2024/01/10 03:30:27;;;;;;;;;;;;;;;;;;5100167;28;20050;-74
2024/01/10 03:32:53;;;;;;;;;;;;;;;;;;5096892;28;19924;-73
2024/01/10 03:35:20;;;;;;;;;;;;;;;;;;5117558;27;19957;-71
2024/01/10 03:37:46;;;;;;;;;;;;;;;;;;5119685;27;19924;-74
2024/01/10 03:40:13;;;;;;;;;;;;;;;;;;5116854;27;19923;-73
2024/01/10 03:42:39;;;;;;;;;;;;;;;;;;5116624;28;20023;-73
2024/01/10 03:45:06;;;;;;;;;;;;;;;;;;5098858;27;20410;-73
2024/01/10 03:47:32;;;;;;;;;;;;;;;;;;5115998;28;19931;-73
2024/01/10 03:49:58;;;;;;;;;;;;;;;;;;5117521;27;20391;-72
2024/01/10 03:52:26;;;;;;;;;;;;;;;;;;5096844;27;19927;-73
2024/01/10 03:54:52;;;;;;;;;;;;;;;;;;5121723;27;20398;-74
2024/01/10 03:57:19;;;;;;;;;;;;;;;;;;5099063;27;20413;-73
2024/01/10 03:59:45;;;;;;;;;;;;;;;;;;5097243;28;19924;-73
2024/01/10 04:02:11;;;;;;;;;;;;;;;;;;5114377;28;20019;-73
2024/01/10 04:04:38;;;;;;;;;;;;;;;;;;5118173;27;19927;-74
2024/01/10 04:07:05;;;;;;;;;;;;;;;;;;5099262;27;19923;-74
2024/01/10 04:09:31;;;;;;;;;;;;;;;;;;5103409;27;19923;-72
2024/01/10 04:11:58;;;;;;;;;;;;;;;;;;5118450;27;20403;-73
2024/01/10 04:14:24;;;;;;;;;;;;;;;;;;5103169;27;19931;-73
2024/01/10 04:16:50;;;;;;;;;;;;;;;;;;5100573;28;19931;-72
2024/01/10 04:19:20;;;;;;;;;;;;;;;;;;5100763;27;20561;-73
2024/01/10 04:21:47;;;;;;;;;;;;;;;;;;5122579;27;19928;-72
2024/01/10 04:24:13;;;;;;;;;;;;;;;;;;5083656;28;19927;-73
2024/01/10 04:26:39;;;;;;;;;;;;;;;;;;5121424;27;20007;-74
2024/01/10 04:29:06;;;;;;;;;;;;;;;;;;5116107;27;19946;-74
2024/01/10 04:31:32;;;;;;;;;;;;;;;;;;5100869;28;20764;-71
2024/01/10 04:33:59;;;;;;;;;;;;;;;;;;5099716;27;20373;-74
2024/01/10 04:36:25;;;;;;;;;;;;;;;;;;5101912;27;19927;-74
2024/01/10 04:38:51;;;;;;;;;;;;;;;;;;5117300;27;19959;-72
2024/01/10 04:41:18;;;;;;;;;;;;;;;;;;5101012;28;19923;-73
2024/01/10 04:43:45;;;;;;;;;;;;;;;;;;5099025;28;20022;-75
2024/01/10 04:46:11;;;;;;;;;;;;;;;;;;5117706;27;19992;-75
2024/01/10 04:48:38;;;;;;;;;;;;;;;;;;5116353;27;20371;-75
2024/01/10 04:51:05;;;;;;;;;;;;;;;;;;5118315;27;20322;-73
2024/01/10 04:53:31;;;;;;;;;;;;;;;;;;5096064;27;19977;-74
2024/01/10 04:55:58;;;;;;;;;;;;;;;;;;5118153;27;19931;-74
2024/01/10 04:58:24;;;;;;;;;;;;;;;;;;5099789;28;19928;-73
2024/01/10 05:00:50;;;;;;;;;;;;;;;;;;5116956;27;20023;-73
2024/01/10 05:03:17;;;;;;;;;;;;;;;;;;5117105;27;19932;-73
2024/01/10 05:05:43;;;;;;;;;;;;;;;;;;5096147;28;19973;-73
2024/01/10 05:08:10;;;;;;;;;;;;;;;;;;5099478;27;19931;-74
2024/01/10 05:10:36;;;;;;;;;;;;;;;;;;5116561;27;19927;-72
2024/01/10 05:13:03;;;;;;;;;;;;;;;;;;5116436;27;20261;-72
2024/01/10 05:15:29;;;;;;;;;;;;;;;;;;5097046;27;20018;-72
2024/01/10 05:17:55;;;;;;;;;;;;;;;;;;5097322;27;20407;-73
2024/01/10 05:20:22;;;;;;;;;;;;;;;;;;5115485;27;19924;-74
2024/01/10 05:22:49;;;;;;;;;;;;;;;;;;5096142;28;19924;-73
2024/01/10 05:25:18;;;;;;;;;;;;;;;;;;5113908;27;19932;-73
2024/01/10 05:27:44;;;;;;;;;;;;;;;;;;5115358;27;20331;-73
2024/01/10 05:30:12;;;;;;;;;;;;;;;;;;5115107;27;20005;-74
2024/01/10 05:32:39;;;;;;;;;;;;;;;;;;5096357;27;19973;-73
2024/01/10 05:35:05;;;;;;;;;;;;;;;;;;5114765;27;19924;-73
2024/01/10 05:37:32;;;;;;;;;;;;;;;;;;5114613;28;19942;-73
2024/01/10 05:39:59;;;;;;;;;;;;;;;;;;5114766;27;20523;-73
2024/01/10 05:42:26;;;;;;;;;;;;;;;;;;5113581;27;20022;-74
2024/01/10 05:44:52;;;;;;;;;;;;;;;;;;5119668;27;20395;-73
2024/01/10 05:47:19;;;;;;;;;;;;;;;;;;5100225;27;19923;-73
2024/01/10 05:49:45;;;;;;;;;;;;;;;;;;5120517;27;20280;-73
2024/01/10 05:52:12;;;;;;;;;;;;;;;;;;5094197;28;19924;-74
2024/01/10 05:54:38;;;;;;;;;;;;;;;;;;5118469;27;19939;-74
2024/01/10 05:57:04;;;;;;;;;;;;;;;;;;5097294;28;20019;-74
2024/01/10 05:59:31;;;;;;;;;;;;;;;;;;5119627;27;20016;-73
2024/01/10 06:01:58;;;;;;;;;;;;;;;;;;5093993;28;19935;-72
2024/01/10 06:04:25;;;;;;;;;;;;;;;;;;5119243;27;19955;-73
2024/01/10 06:06:51;;;;;;;;;;;;;;;;;;5098155;28;19935;-73
2024/01/10 06:09:21;;;;;;;;;;;;;;;;;;5097793;28;19938;-75
2024/01/10 06:11:48;;;;;;;;;;;;;;;;;;5096160;28;19931;-73
2024/01/10 06:14:14;;;;;;;;;;;;;;;;;;5098126;28;19996;-72
2024/01/10 06:16:41;;;;;;;;;;;;;;;;;;5100673;28;20376;-75
2024/01/10 06:19:07;;;;;;;;;;;;;;;;;;5100694;27;19927;-74
2024/01/10 06:21:34;;;;;;;;;;;;;;;;;;5119761;27;20006;-74
2024/01/10 06:24:00;;;;;;;;;;;;;;;;;;5118424;27;19972;-73
2024/01/10 06:26:26;;;;;;;;;;;;;;;;;;5115620;27;19976;-74
2024/01/10 06:28:53;;;;;;;;;;;;;;;;;;5119039;27;19928;-74
2024/01/10 06:31:20;;;;;;;;;;;;;;;;;;5116700;27;19948;-72
2024/01/10 06:33:46;;;;;;;;;;;;;;;;;;5110516;27;19970;-73
2024/01/10 06:36:13;;;;;;;;;;;;;;;;;;5098470;28;19924;-72
2024/01/10 06:38:39;;;;;;;;;;;;;;;;;;5114870;28;19946;-73
2024/01/10 06:41:06;;;;;;;;;;;;;;;;;;5097818;28;19927;-72
2024/01/10 06:43:32;;;;;;;;;;;;;;;;;;5079273;28;20012;-73
2024/01/10 06:45:58;;;;;;;;;;;;;;;;;;5081435;28;20008;-73
2024/01/10 06:48:25;;;;;;;;;;;;;;;;;;5097262;28;19927;-74
2024/01/10 06:50:51;;;;;;;;;;;;;;;;;;5113587;28;20022;-74
2024/01/10 06:53:19;;;;;;;;;;;;;;;;;;5095047;28;19931;-73
2024/01/10 06:55:46;;;;;;;;;;;;;;;;;;5115916;28;20002;-73
2024/01/10 06:58:12;;;;;;;;;;;;;;;;;;5080817;28;19931;-74
2024/01/10 07:00:39;;;;;;;;;;;;;;;;;;5113797;28;19935;-73
2024/01/10 07:03:05;;;;;;;;;;;;;;;;;;5112912;28;19928;-74
2024/01/10 07:05:32;;;;;;;;;;;;;;;;;;5096419;28;20388;-74
2024/01/10 07:07:58;;;;;;;;;;;;;;;;;;5096495;28;20403;-73
2024/01/10 07:10:27;;;;;;;;;;;;;;;;;;5095450;28;19924;-73
2024/01/10 07:12:53;;;;;;;;;;;;;;;;;;5095468;28;20015;-75
2024/01/10 07:15:20;;;;;;;;;;;;;;;;;;5095183;28;19924;-73
2024/01/10 07:17:46;;;;;;;;;;;;;;;;;;5112608;28;19924;-73
2024/01/10 07:20:13;;;;;;;;;;;;;;;;;;5092817;28;19924;-73
2024/01/10 07:22:41;;;;;;;;;;;;;;;;;;5094689;28;21890;-74
2024/01/10 07:25:08;;;;;;;;;;;;;;;;;;5077391;28;19934;-74
2024/01/10 07:27:34;;;;;;;;;;;;;;;;;;5094764;28;19923;-74
2024/01/10 07:30:01;;;;;;;;;;;;;;;;;;5096534;28;19927;-72
2024/01/10 07:32:27;;;;;;;;;;;;;;;;;;5100450;28;19931;-72
2024/01/10 07:34:54;;;;;;;;;;;;;;;;;;5117645;28;20044;-72
2024/01/10 07:37:22;;;;;;;;;;;;;;;;;;5097512;28;19931;-74
2024/01/10 07:39:50;;;;;;;;;;;;;;;;;;5113393;28;19945;-73
2024/01/10 07:42:18;;;;;;;;;;;;;;;;;;5115474;28;19923;-73
2024/01/10 07:44:44;;;;;;;;;;;;;;;;;;5111870;28;20011;-72
2024/01/10 07:47:12;;;;;;;;;;;;;;;;;;5097185;28;19959;-73
2024/01/10 07:49:39;;;;;;;;;;;;;;;;;;5115977;28;19928;-74
2024/01/10 07:52:05;;;;;;;;;;;;;;;;;;5096535;28;19923;-73
2024/01/10 07:54:32;;;;;;;;;;;;;;;;;;5116561;28;19970;-73
2024/01/10 07:56:58;;;;;;;;;;;;;;;;;;5098147;28;19973;-73
2024/01/10 07:59:25;;;;;;;;;;;;;;;;;;5099105;28;19934;-71
2024/01/10 08:01:52;;;;;;;;;;;;;;;;;;5092169;28;19938;-72
2024/01/10 08:04:18;;;;;;;;;;;;;;;;;;5102483;28;19930;-73
2024/01/10 08:06:44;;;;;;;;;;;;;;;;;;5116392;27;19936;-73
2024/01/10 08:09:11;;;;;;;;;;;;;;;;;;5122509;27;20403;-75
2024/01/10 08:11:38;;;;;;;;;;;;;;;;;;5118132;27;19931;-74
2024/01/10 08:14:05;;;;;;;;;;;;;;;;;;5122659;27;19964;-73
2024/01/10 08:16:32;;;;;;;;;;;;;;;;;;5123054;27;19924;-73
2024/01/10 08:18:58;;;;;;;;;;;;;;;;;;5101397;27;19927;-73
2024/01/10 08:21:25;;;;;;;;;;;;;;;;;;5102179;27;19928;-74
2024/01/10 08:23:55;;;;;;;;;;;;;;;;;;5099009;27;19977;-75
2024/01/10 08:26:21;;;;;;;;;;;;;;;;;;5118166;27;20466;-74
2024/01/10 08:28:47;;;;;;;;;;;;;;;;;;5098759;28;20369;-72
2024/01/10 08:31:14;;;;;;;;;;;;;;;;;;5097117;28;19924;-73
2024/01/10 08:33:41;;;;;;;;;;;;;;;;;;5117866;27;19923;-73
2024/01/10 08:36:09;;;;;;;;;;;;;;;;;;5117594;27;19928;-73
2024/01/10 08:38:36;;;;;;;;;;;;;;;;;;5115906;27;19923;-71
2024/01/10 08:41:03;;;;;;;;;;;;;;;;;;5118747;27;19931;-73
2024/01/10 08:43:30;;;;;;;;;;;;;;;;;;5088083;27;20332;-74
2024/01/10 08:46:00;;;;;;;;;;;;;;;;;;5099841;27;19974;-73
2024/01/10 08:48:26;;;;;;;;;;;;;;;;;;5097764;27;19931;-72
2024/01/10 08:50:55;;;;;;;;;;;;;;;;;;5081869;27;20380;-72
2024/01/10 08:53:22;;;;;;;;;;;;;;;;;;5096350;28;19924;-73
2024/01/10 08:55:49;;;;;;;;;;;;;;;;;;5081083;28;19924;-75
2024/01/10 08:58:15;;;;;;;;;;;;;;;;;;5115151;27;20372;-73
2024/01/10 09:00:42;;;;;;;;;;;;;;;;;;5116198;27;19924;-73
2024/01/10 09:03:08;;;;;;;;;;;;;;;;;;5079876;28;19923;-73
2024/01/10 09:05:35;;;;;;;;;;;;;;;;;;5097203;28;19935;-74
2024/01/10 09:08:02;;;;;;;;;;;;;;;;;;5115307;27;20269;-74
2024/01/10 09:10:29;;;;;;;;;;;;;;;;;;5096580;28;19923;-73
2024/01/10 09:12:55;;;;;;;;;;;;;;;;;;5114610;27;19973;-72
2024/01/10 09:15:22;;;;;;;;;;;;;;;;;;5112945;27;20018;-73
2024/01/10 09:17:48;;;;;;;;;;;;;;;;;;5113641;28;20011;-72
2024/01/10 09:20:15;;;;;;;;;;;;;;;;;;5100662;27;19980;-72
2024/01/10 09:22:42;;;;;;;;;;;;;;;;;;5116338;27;19924;-73
2024/01/10 09:25:08;;;;;;;;;;;;;;;;;;5113687;27;20288;-72
2024/01/10 09:27:35;;;;;;;;;;;;;;;;;;5101245;27;20018;-73
2024/01/10 09:30:01;;;;;;;;;;;;;;;;;;5116182;27;19980;-72
2024/01/10 09:32:29;;;;;;;;;;;;;;;;;;5118665;27;20384;-73
2024/01/10 09:34:56;;;;;;;;;;;;;;;;;;5097681;28;19923;-73
2024/01/10 09:37:23;;;;;;;;;;;;;;;;;;5120107;27;19947;-73
2024/01/10 09:39:50;;;;;;;;;;;;;;;;;;5098328;27;19957;-73
2024/01/10 09:42:16;;;;;;;;;;;;;;;;;;5117850;27;19924;-73
2024/01/10 09:44:43;;;;;;;;;;;;;;;;;;5077276;28;20463;-72
2024/01/10 09:47:09;;;;;;;;;;;;;;;;;;5115884;27;20894;-73
2024/01/10 09:49:35;;;;;;;;;;;;;;;;;;5119246;27;19967;-73
2024/01/10 09:52:02;;;;;;;;;;;;;;;;;;5116488;27;19930;-74
2024/01/10 09:54:28;;;;;;;;;;;;;;;;;;5119093;27;19934;-74
2024/01/10 09:56:55;;;;;;;;;;;;;;;;;;5114495;27;20349;-74
2024/01/10 09:59:22;;;;;;;;;;;;;;;;;;5101281;27;19923;-74
2024/01/10 10:01:48;;;;;;;;;;;;;;;;;;5096908;27;19988;-73
2024/01/10 10:04:16;;;;;;;;;;;;;;;;;;5120075;27;19927;-72
2024/01/10 10:06:42;;;;;;;;;;;;;;;;;;5093865;28;19930;-73
2024/01/10 10:09:09;;;;;;;;;;;;;;;;;;5078180;28;20280;-75
2024/01/10 10:11:36;;;;;;;;;;;;;;;;;;5113801;27;19959;-73
2024/01/10 10:14:02;;;;;;;;;;;;;;;;;;5115112;27;19924;-73
2024/01/10 10:16:29;;;;;;;;;;;;;;;;;;5098785;27;19927;-74
2024/01/10 10:18:57;;;;;;;;;;;;;;;;;;5116410;27;19928;-73
2024/01/10 10:21:24;;;;;;;;;;;;;;;;;;5115094;27;20000;-72
2024/01/10 10:23:50;;;;;;;;;;;;;;;;;;5115321;27;20018;-73
2024/01/10 10:26:20;;;;;;;;;;;;;;;;;;5098154;27;19973;-71
2024/01/10 10:28:47;;;;;;;;;;;;;;;;;;5100457;28;20347;-74
2024/01/10 10:31:14;;;;;;;;;;;;;;;;;;5099219;28;19924;-73
2024/01/10 10:33:41;;;;;;;;;;;;;;;;;;5095420;28;19931;-73
2024/01/10 10:36:08;;;;;;;;;;;;;;;;;;5114994;27;19927;-74
2024/01/10 10:38:34;;;;;;;;;;;;;;;;;;5114335;27;19927;-72
2024/01/10 10:41:01;;;;;;;;;;;;;;;;;;5115935;28;19954;-73
2024/01/10 10:43:28;;;;;;;;;;;;;;;;;;5114335;28;19967;-72
2024/01/10 10:45:54;;;;;;;;;;;;;;;;;;5079904;28;19951;-73
2024/01/10 10:48:20;;;;;;;;;;;;;;;;;;5112382;28;19928;-73
2024/01/10 10:50:48;;;;;;;;;;;;;;;;;;5110367;28;19927;-73
2024/01/10 10:53:18;;;;;;;;;;;;;;;;;;5095908;28;19963;-73
2024/01/10 10:55:44;;;;;;;;;;;;;;;;;;5089757;28;19930;-73
2024/01/10 10:58:11;;;;;;;;;;;;;;;;;;5093785;28;19927;-75
2024/01/10 11:00:37;;;;;;;;;;;;;;;;;;5112874;28;19927;-72
2024/01/10 11:03:04;;;;;;;;;;;;;;;;;;5112674;28;19924;-73
2024/01/10 11:05:30;;;;;;;;;;;;;;;;;;5112065;28;19969;-73
2024/01/10 11:07:57;;;;;;;;;;;;;;;;;;5097541;28;20389;-72
2024/01/10 11:10:24;;;;;;;;;;;;;;;;;;5097855;28;20022;-73
2024/01/10 11:12:51;;;;;;;;;;;;;;;;;;5118894;28;20319;-73
2024/01/10 11:15:17;;;;;;;;;;;;;;;;;;5117567;28;19977;-72
2024/01/10 11:17:43;;;;;;;;;;;;;;;;;;5118752;28;20387;-73
2024/01/10 11:20:11;;;;;;;;;;;;;;;;;;5113107;28;19939;-72
2024/01/10 11:22:38;;;;;;;;;;;;;;;;;;5083776;28;19925;-73
2024/01/10 11:25:05;;;;;;;;;;;;;;;;;;5097087;28;19949;-74
2024/01/10 11:27:31;;;;;;;;;;;;;;;;;;5119928;28;19967;-73
2024/01/10 11:29:58;;;;;;;;;;;;;;;;;;5096377;28;19963;-75
2024/01/10 11:32:25;;;;;;;;;;;;;;;;;;5097168;28;20276;-75
2024/01/10 11:34:51;;;;;;;;;;;;;;;;;;5095672;28;19928;-74
2024/01/10 11:37:18;;;;;;;;;;;;;;;;;;5120730;27;20000;-73
2024/01/10 11:39:44;;;;;;;;;;;;;;;;;;5101291;28;20360;-76
2024/01/10 11:42:11;;;;;;;;;;;;;;;;;;5100325;27;20103;-74
2024/01/10 11:44:37;;;;;;;;;;;;;;;;;;5099755;28;20590;-74
2024/01/10 11:47:05;;;;;;;;;;;;;;;;;;5101807;28;20375;-75
2024/01/10 11:49:31;;;;;;;;;;;;;;;;;;5103078;27;19928;-74
2024/01/10 11:51:58;;;;;;;;;;;;;;;;;;5116340;27;19928;-77
2024/01/10 11:54:24;;;;;;;;;;;;;;;;;;5100342;27;20901;-75
2024/01/10 11:56:52;;;;;;;;;;;;;;;;;;5098621;28;19959;-75
2024/01/10 11:59:20;;;;;;;;;;;;;;;;;;5121520;27;19946;-77
2024/01/10 12:01:47;;;;;;;;;;;;;;;;;;5081421;28;19939;-75
2024/01/10 12:04:14;;;;;;;;;;;;;;;;;;5121186;27;19923;-75
2024/01/10 12:06:46;;;;;;;;;;;;;;;;;;5101852;28;19932;-76
2024/01/10 12:09:14;;;;;;;;;;;;;;;;;;5100765;28;19930;-76
2024/01/10 12:11:41;;;;;;;;;;;;;;;;;;5100064;27;20060;-75
2024/01/10 12:14:08;;;;;;;;;;;;;;;;;;5098446;28;19928;-76
2024/01/10 12:16:34;;;;;;;;;;;;;;;;;;5099088;28;19931;-75
2024/01/10 12:19:01;;;;;;;;;;;;;;;;;;5082315;27;20433;-75
2024/01/10 12:21:27;;;;;;;;;;;;;;;;;;5098451;27;19923;-76
2024/01/10 12:23:54;;;;;;;;;;;;;;;;;;5082647;27;19951;-77
2024/01/10 12:26:21;;;;;;;;;;;;;;;;;;5098327;28;19934;-77
2024/01/10 12:28:48;;;;;;;;;;;;;;;;;;5082809;28;19927;-77
2024/01/10 12:31:14;;;;;;;;;;;;;;;;;;5115160;27;19931;-74
2024/01/10 12:33:42;;;;;;;;;;;;;;;;;;5116939;27;20485;-75
2024/01/10 12:36:11;;;;;;;;;;;;;;;;;;5101417;28;19961;-75
2024/01/10 12:38:38;;;;;;;;;;;;;;;;;;5095157;28;20439;-75
2024/01/10 12:41:04;;;;;;;;;;;;;;;;;;5097547;28;20380;-75
2024/01/10 12:43:31;;;;;;;;;;;;;;;;;;5097656;28;19930;-76
2024/01/10 12:45:57;;;;;;;;;;;;;;;;;;5080503;28;19942;-76
2024/01/10 12:48:24;;;;;;;;;;;;;;;;;;5096672;28;19946;-75
2024/01/10 12:50:50;;;;;;;;;;;;;;;;;;5100009;28;19928;-76
2024/01/10 12:53:17;;;;;;;;;;;;;;;;;;5096736;28;19947;-79
2024/01/10 12:55:43;;;;;;;;;;;;;;;;;;5079483;28;19973;-75
2024/01/10 12:58:10;;;;;;;;;;;;;;;;;;5098858;28;19924;-77
2024/01/10 13:00:36;;;;;;;;;;;;;;;;;;5103977;27;19976;-76
2024/01/10 13:03:03;;;;;;;;;;;;;;;;;;5116165;27;20398;-77
2024/01/10 13:05:29;;;;;;;;;;;;;;;;;;5099424;27;19941;-75
2024/01/10 13:07:56;;;;;;;;;;;;;;;;;;5118055;27;19971;-77
2024/01/10 13:10:23;;;;;;;;;;;;;;;;;;5121230;27;19927;-77
2024/01/10 13:12:49;;;;;;;;;;;;;;;;;;5099569;27;19924;-77
2024/01/10 13:15:16;;;;;;;;;;;;;;;;;;5102434;27;20018;-77
2024/01/10 13:17:45;;;;;;;;;;;;;;;;;;5122310;27;19924;-78
2024/01/10 13:20:12;;;;;;;;;;;;;;;;;;5098719;28;20025;-77
2024/01/10 13:22:38;;;;;;;;;;;;;;;;;;5103909;27;19928;-79
2024/01/10 13:25:05;;;;;;;;;;;;;;;;;;5096552;28;19973;-76
2024/01/10 13:27:31;;;;;;;;;;;;;;;;;;5097847;27;19927;-77
2024/01/10 13:29:58;;;;;;;;;;;;;;;;;;5102997;28;19958;-76
2024/01/10 13:32:25;;;;;;;;;;;;;;;;;;5108066;27;19931;-78
2024/01/10 13:34:52;;;;;;;;;;;;;;;;;;5095228;28;20032;-76
2024/01/10 13:37:18;;;;;;;;;;;;;;;;;;5078871;28;20011;-75
2024/01/10 13:39:45;;;;;;;;;;;;;;;;;;5094570;27;19923;-77
2024/01/10 13:42:11;;;;;;;;;;;;;;;;;;5087025;27;19923;-76
2024/01/10 13:44:38;;;;;;;;;;;;;;;;;;5120266;27;19934;-76
2024/01/10 13:47:05;;;;;;;;;;;;;;;;;;5114490;27;20384;-78
2024/01/10 13:49:31;;;;;;;;;;;;;;;;;;5115726;27;19958;-79
2024/01/10 13:51:58;;;;;;;;;;;;;;;;;;5080475;27;20019;-78
2024/01/10 13:54:24;;;;;;;;;;;;;;;;;;5096812;28;19923;-77
2024/01/10 13:56:51;;;;;;;;;;;;;;;;;;5111472;27;19954;-78
2024/01/10 13:59:17;;;;;;;;;;;;;;;;;;5090325;28;19928;-78
2024/01/10 14:01:44;;;;;;;;;;;;;;;;;;5079178;28;19928;-77
2024/01/10 14:04:10;;;;;;;;;;;;;;;;;;5116452;27;19959;-78
2024/01/10 14:06:36;;;;;;;;;;;;;;;;;;5115306;27;20010;-77
2024/01/10 14:09:03;;;;;;;;;;;;;;;;;;5094074;28;20006;-79
2024/01/10 14:11:29;;;;;;;;;;;;;;;;;;5095280;28;20338;-78
2024/01/10 14:13:56;;;;;;;;;;;;;;;;;;5116027;27;20019;-78
2024/01/10 14:16:22;;;;;;;;;;;;;;;;;;5095729;27;19988;-77
2024/01/10 14:18:49;;;;;;;;;;;;;;;;;;5097714;28;19999;-78
2024/01/10 14:21:15;;;;;;;;;;;;;;;;;;5116017;27;19923;-78
2024/01/10 14:23:42;;;;;;;;;;;;;;;;;;5118616;27;19984;-78
2024/01/10 14:26:10;;;;;;;;;;;;;;;;;;5114168;27;19946;-78
2024/01/10 14:28:36;;;;;;;;;;;;;;;;;;5113760;28;19924;-79
2024/01/10 14:31:03;;;;;;;;;;;;;;;;;;5114732;27;19924;-78
2024/01/10 14:33:39;;;;;;;;;;;;;;;;;;5113726;28;19963;-78
2024/01/10 14:36:05;;;;;;;;;;;;;;;;;;5096641;28;20623;-78
2024/01/10 14:38:32;;;;;;;;;;;;;;;;;;5117353;27;20354;-80
2024/01/10 14:40:58;;;;;;;;;;;;;;;;;;5095594;28;20026;-79
2024/01/10 14:43:25;;;;;;;;;;;;;;;;;;5114348;28;20427;-79
2024/01/10 14:45:51;;;;;;;;;;;;;;;;;;5081626;28;19955;-79
2024/01/10 14:48:18;;;;;;;;;;;;;;;;;;5116590;28;20437;-80
2024/01/10 14:50:46;;;;;;;;;;;;;;;;;;5116626;28;19998;-78
2024/01/10 14:53:13;;;;;;;;;;;;;;;;;;5120595;28;20341;-79
2024/01/10 14:55:40;;;;;;;;;;;;;;;;;;5086301;28;19927;-79
2024/01/10 14:58:06;;;;;;;;;;;;;;;;;;5098477;28;19924;-81
2024/01/10 15:00:33;;;;;;;;;;;;;;;;;;5118040;28;19981;-78
2024/01/10 15:02:59;;;;;;;;;;;;;;;;;;5111962;28;19928;-79
2024/01/10 15:05:29;;;;;;;;;;;;;;;;;;5099829;28;19959;-79
2024/01/10 15:07:56;;;;;;;;;;;;;;;;;;5074257;28;19960;-79
2024/01/10 15:10:22;;;;;;;;;;;;;;;;;;5088652;28;19939;-80
2024/01/10 15:12:49;;;;;;;;;;;;;;;;;;5100713;28;20030;-78
2024/01/10 15:15:15;;;;;;;;;;;;;;;;;;5100546;27;19927;-79
2024/01/10 15:17:41;;;;;;;;;;;;;;;;;;5105226;28;19924;-78
2024/01/10 15:20:08;;;;;;;;;;;;;;;;;;5103042;28;20014;-81
2024/01/10 15:22:37;;;;;;;;;;;;;;;;;;5093736;27;19924;-79
2024/01/10 15:25:03;;;;;;;;;;;;;;;;;;5099070;28;19924;-79
2024/01/10 15:27:30;;;;;;;;;;;;;;;;;;5099990;28;19923;-79
2024/01/10 15:29:56;;;;;;;;;;;;;;;;;;5099375;27;19928;-77
2024/01/10 15:32:32;;;;;;;;;;;;;;;;;;5095509;28;19977;-78
2024/01/10 15:35:03;;;;;;;;;;;;;;;;;;5101599;28;19928;-79
2024/01/10 15:37:31;;;;;;;;;;;;;;;;;;5126779;27;20343;-79
2024/01/10 15:39:58;;;;;;;;;;;;;;;;;;5100079;28;19924;-77
2024/01/10 15:42:24;;;;;;;;;;;;;;;;;;5100410;28;19970;-78
2024/01/10 15:44:53;;;;;;;;;;;;;;;;;;5100530;28;19967;-77
2024/01/10 15:47:19;;;;;;;;;;;;;;;;;;5101534;27;19974;-78
2024/01/10 15:49:46;;;;;;;;;;;;;;;;;;5099695;28;19939;-77
2024/01/10 15:52:13;;;;;;;;;;;;;;;;;;5101438;27;19966;-78
2024/01/10 15:54:39;;;;;;;;;;;;;;;;;;5119315;27;19924;-78
2024/01/10 15:57:06;;;;;;;;;;;;;;;;;;5118570;27;19927;-77
2024/01/10 15:59:33;;;;;;;;;;;;;;;;;;5123088;27;19930;-75
2024/01/10 16:01:59;;;;;;;;;;;;;;;;;;5099839;28;19931;-76
2024/01/10 16:04:25;;;;;;;;;;;;;;;;;;5080862;27;20357;-75
2024/01/10 16:06:54;;;;;;;;;;;;;;;;;;5098751;28;20015;-75
2024/01/10 16:09:21;;;;;;;;;;;;;;;;;;5099689;28;19923;-76
2024/01/10 16:11:49;;;;;;;;;;;;;;;;;;5116596;27;19924;-77
2024/01/10 16:14:15;;;;;;;;;;;;;;;;;;5119213;27;20304;-76
2024/01/10 16:16:41;;;;;;;;;;;;;;;;;;5098442;28;19931;-75
2024/01/10 16:19:08;;;;;;;;;;;;;;;;;;5097435;28;19954;-77
2024/01/10 16:21:34;;;;;;;;;;;;;;;;;;5113376;27;19988;-75
2024/01/10 16:24:01;;;;;;;;;;;;;;;;;;5097558;28;20459;-77
2024/01/10 16:26:27;;;;;;;;;;;;;;;;;;5117488;27;19934;-76
2024/01/10 16:28:54;;;;;;;;;;;;;;;;;;5116148;27;19924;-77
2024/01/10 16:31:21;;;;;;;;;;;;;;;;;;5096943;28;19988;-75
2024/01/10 16:33:47;;;;;;;;;;;;;;;;;;5115536;28;19939;-76
2024/01/10 16:36:14;;;;;;;;;;;;;;;;;;5102329;27;20436;-75
2024/01/10 16:38:40;;;;;;;;;;;;;;;;;;5102442;27;19924;-76
2024/01/10 16:41:07;;;;;;;;;;;;;;;;;;5118987;27;20384;-75